sensor_id;sensor_type;location;lat;lon;timestamp;temperature;humidity
61207;DHT22;47070;49.212;8.084;2022-11-15T00:02:56;11.80;99.90
61207;DHT22;47070;49.212;8.084;2022-11-15T00:06:57;11.70;99.90
61207;DHT22;47070;49.212;8.084;2022-11-15T00:10:58;11.80;99.90
61207;DHT22;47070;49.212;8.084;2022-11-15T00:14:59;11.80;99.90
61207;DHT22;47070;49.212;8.084;2022-11-15T00:19:00;11.80;99.90
61207;DHT22;47070;49.212;8.084;2022-11-15T00:23:02;11.80;99.90
61207;DHT22;47070;49.212;8.084;2022-11-15T00:27:03;11.70;99.90
61207;DHT22;47070;49.212;8.084;2022-11-15T00:31:05;11.80;99.90
61207;DHT22;47070;49.212;8.084;2022-11-15T00:35:06;11.60;99.90
61207;DHT22;47070;49.212;8.084;2022-11-15T00:39:06;11.90;99.90
61207;DHT22;47070;49.212;8.084;2022-11-15T00:43:07;11.80;99.90
61207;DHT22;47070;49.212;8.084;2022-11-15T00:47:07;11.90;99.90
61207;DHT22;47070;49.212;8.084;2022-11-15T00:51:08;12.00;99.90
61207;DHT22;47070;49.212;8.084;2022-11-15T00:55:18;11.90;99.90
61207;DHT22;47070;49.212;8.084;2022-11-15T00:59:19;11.90;99.90
61207;DHT22;47070;49.212;8.084;2022-11-15T01:03:20;12.00;99.90
61207;DHT22;47070;49.212;8.084;2022-11-15T01:07:20;11.90;99.90
61207;DHT22;47070;49.212;8.084;2022-11-15T01:11:21;12.20;99.90
61207;DHT22;47070;49.212;8.084;2022-11-15T01:15:21;12.10;99.90
61207;DHT22;47070;49.212;8.084;2022-11-15T01:19:22;12.00;99.90
61207;DHT22;47070;49.212;8.084;2022-11-15T01:23:22;11.90;99.90
61207;DHT22;47070;49.212;8.084;2022-11-15T01:27:23;12.00;99.90
61207;DHT22;47070;49.212;8.084;2022-11-15T01:31:23;12.00;99.90
61207;DHT22;47070;49.212;8.084;2022-11-15T01:35:24;12.00;99.90
61207;DHT22;47070;49.212;8.084;2022-11-15T01:39:24;12.00;99.90
61207;DHT22;47070;49.212;8.084;2022-11-15T01:43:31;12.00;99.90
61207;DHT22;47070;49.212;8.084;2022-11-15T01:47:39;12.10;99.90
61207;DHT22;47070;49.212;8.084;2022-11-15T01:51:40;12.20;99.90
61207;DHT22;47070;49.212;8.084;2022-11-15T01:55:41;12.00;99.90
61207;DHT22;47070;49.212;8.084;2022-11-15T01:59:43;12.10;99.90
61207;DHT22;47070;49.212;8.084;2022-11-15T02:03:52;12.00;99.90
61207;DHT22;47070;49.212;8.084;2022-11-15T02:07:54;12.10;99.90
61207;DHT22;47070;49.212;8.084;2022-11-15T02:11:55;12.20;99.90
61207;DHT22;47070;49.212;8.084;2022-11-15T02:29:44;12.10;99.90
61207;DHT22;47070;49.212;8.084;2022-11-15T02:38:32;12.10;99.90
61207;DHT22;47070;49.212;8.084;2022-11-15T02:42:43;12.50;99.90
61207;DHT22;47070;49.212;8.084;2022-11-15T02:47:06;12.40;99.90
61207;DHT22;47070;49.212;8.084;2022-11-15T02:51:15;13.30;99.90
61207;DHT22;47070;49.212;8.084;2022-11-15T02:55:46;13.00;99.90
61207;DHT22;47070;49.212;8.084;2022-11-15T03:00:07;12.70;99.90
61207;DHT22;47070;49.212;8.084;2022-11-15T03:13:25;12.40;99.90
61207;DHT22;47070;49.212;8.084;2022-11-15T03:17:30;12.30;99.90
61207;DHT22;47070;49.212;8.084;2022-11-15T03:21:34;12.30;99.90
61207;DHT22;47070;49.212;8.084;2022-11-15T03:25:40;12.40;99.90
61207;DHT22;47070;49.212;8.084;2022-11-15T03:29:52;12.30;99.90
61207;DHT22;47070;49.212;8.084;2022-11-15T03:33:57;12.30;99.90
61207;DHT22;47070;49.212;8.084;2022-11-15T03:38:23;12.20;99.90
61207;DHT22;47070;49.212;8.084;2022-11-15T03:42:30;12.10;99.90
61207;DHT22;47070;49.212;8.084;2022-11-15T03:46:44;12.10;99.90
61207;DHT22;47070;49.212;8.084;2022-11-15T03:50:48;11.90;99.90
61207;DHT22;47070;49.212;8.084;2022-11-15T03:54:54;11.90;99.90
61207;DHT22;47070;49.212;8.084;2022-11-15T03:58:55;12.00;99.90
61207;DHT22;47070;49.212;8.084;2022-11-15T04:02:55;11.80;99.90
61207;DHT22;47070;49.212;8.084;2022-11-15T04:06:56;11.80;99.90
61207;DHT22;47070;49.212;8.084;2022-11-15T04:10:57;12.00;99.90
61207;DHT22;47070;49.212;8.084;2022-11-15T04:15:06;12.00;99.90
61207;DHT22;47070;49.212;8.084;2022-11-15T04:19:09;12.00;99.90
61207;DHT22;47070;49.212;8.084;2022-11-15T04:23:28;12.00;99.90
61207;DHT22;47070;49.212;8.084;2022-11-15T04:27:47;12.10;99.90
61207;DHT22;47070;49.212;8.084;2022-11-15T04:31:47;12.20;99.90
61207;DHT22;47070;49.212;8.084;2022-11-15T04:35:48;12.20;99.90
61207;DHT22;47070;49.212;8.084;2022-11-15T04:40:09;12.20;99.90
61207;DHT22;47070;49.212;8.084;2022-11-15T04:44:09;12.10;99.90
61207;DHT22;47070;49.212;8.084;2022-11-15T04:48:10;12.20;99.90
61207;DHT22;47070;49.212;8.084;2022-11-15T04:52:10;12.10;99.90
61207;DHT22;47070;49.212;8.084;2022-11-15T04:56:11;12.10;99.90
61207;DHT22;47070;49.212;8.084;2022-11-15T05:00:14;12.10;99.90
61207;DHT22;47070;49.212;8.084;2022-11-15T05:04:15;11.90;99.90
61207;DHT22;47070;49.212;8.084;2022-11-15T05:08:21;11.90;99.90
61207;DHT22;47070;49.212;8.084;2022-11-15T05:12:22;11.70;99.90
61207;DHT22;47070;49.212;8.084;2022-11-15T05:16:22;11.90;99.90
61207;DHT22;47070;49.212;8.084;2022-11-15T05:20:23;11.80;99.90
61207;DHT22;47070;49.212;8.084;2022-11-15T05:24:23;11.90;99.90
61207;DHT22;47070;49.212;8.084;2022-11-15T05:28:24;12.10;99.90
61207;DHT22;47070;49.212;8.084;2022-11-15T05:32:25;12.10;99.90
61207;DHT22;47070;49.212;8.084;2022-11-15T05:36:31;12.10;99.90
61207;DHT22;47070;49.212;8.084;2022-11-15T05:40:34;12.10;99.90
61207;DHT22;47070;49.212;8.084;2022-11-15T05:44:36;12.10;99.90
61207;DHT22;47070;49.212;8.084;2022-11-15T05:48:42;12.10;99.90
61207;DHT22;47070;49.212;8.084;2022-11-15T05:52:44;12.10;99.90
61207;DHT22;47070;49.212;8.084;2022-11-15T05:56:46;11.90;99.90
61207;DHT22;47070;49.212;8.084;2022-11-15T06:00:46;11.80;99.90
61207;DHT22;47070;49.212;8.084;2022-11-15T06:04:47;11.70;99.90
61207;DHT22;47070;49.212;8.084;2022-11-15T06:08:47;11.60;99.90
61207;DHT22;47070;49.212;8.084;2022-11-15T06:12:59;11.60;99.90
61207;DHT22;47070;49.212;8.084;2022-11-15T06:17:00;11.60;99.90
61207;DHT22;47070;49.212;8.084;2022-11-15T06:21:01;11.50;99.90
61207;DHT22;47070;49.212;8.084;2022-11-15T06:25:01;11.40;99.90
61207;DHT22;47070;49.212;8.084;2022-11-15T06:29:03;11.30;99.90
61207;DHT22;47070;49.212;8.084;2022-11-15T06:33:05;11.20;99.90
61207;DHT22;47070;49.212;8.084;2022-11-15T06:37:06;11.10;99.90
61207;DHT22;47070;49.212;8.084;2022-11-15T06:41:08;11.00;99.90
61207;DHT22;47070;49.212;8.084;2022-11-15T06:45:09;10.80;99.90
61207;DHT22;47070;49.212;8.084;2022-11-15T06:49:09;10.70;99.90
61207;DHT22;47070;49.212;8.084;2022-11-15T06:53:10;10.80;99.90
61207;DHT22;47070;49.212;8.084;2022-11-15T06:57:10;10.60;99.90
61207;DHT22;47070;49.212;8.084;2022-11-15T07:01:11;10.70;99.90
61207;DHT22;47070;49.212;8.084;2022-11-15T07:05:12;10.70;99.90
61207;DHT22;47070;49.212;8.084;2022-11-15T07:09:14;10.80;99.90
61207;DHT22;47070;49.212;8.084;2022-11-15T07:13:14;10.80;99.90
61207;DHT22;47070;49.212;8.084;2022-11-15T07:17:15;10.90;99.90
61207;DHT22;47070;49.212;8.084;2022-11-15T07:21:15;11.00;99.90
61207;DHT22;47070;49.212;8.084;2022-11-15T07:25:16;11.10;99.90
61207;DHT22;47070;49.212;8.084;2022-11-15T07:29:16;11.20;99.90
61207;DHT22;47070;49.212;8.084;2022-11-15T07:33:17;11.30;99.90
61207;DHT22;47070;49.212;8.084;2022-11-15T07:37:17;11.40;99.90
61207;DHT22;47070;49.212;8.084;2022-11-15T07:41:18;11.50;99.90
61207;DHT22;47070;49.212;8.084;2022-11-15T07:45:20;11.70;99.90
61207;DHT22;47070;49.212;8.084;2022-11-15T07:49:20;11.70;99.90
61207;DHT22;47070;49.212;8.084;2022-11-15T07:53:21;11.80;99.90
61207;DHT22;47070;49.212;8.084;2022-11-15T07:57:21;11.90;99.90
61207;DHT22;47070;49.212;8.084;2022-11-15T08:01:22;12.00;99.90
61207;DHT22;47070;49.212;8.084;2022-11-15T08:05:22;12.10;99.90
61207;DHT22;47070;49.212;8.084;2022-11-15T08:09:23;12.20;99.90
61207;DHT22;47070;49.212;8.084;2022-11-15T08:13:23;12.20;99.90
61207;DHT22;47070;49.212;8.084;2022-11-15T08:17:25;12.40;99.90
61207;DHT22;47070;49.212;8.084;2022-11-15T08:21:25;12.30;99.90
61207;DHT22;47070;49.212;8.084;2022-11-15T08:25:27;12.30;99.90
61207;DHT22;47070;49.212;8.084;2022-11-15T08:29:28;12.40;99.90
61207;DHT22;47070;49.212;8.084;2022-11-15T08:33:30;12.60;99.90
61207;DHT22;47070;49.212;8.084;2022-11-15T08:37:30;12.60;99.90
61207;DHT22;47070;49.212;8.084;2022-11-15T08:41:32;12.80;99.90
61207;DHT22;47070;49.212;8.084;2022-11-15T08:45:34;12.90;99.90
61207;DHT22;47070;49.212;8.084;2022-11-15T08:49:35;12.90;99.90
61207;DHT22;47070;49.212;8.084;2022-11-15T08:53:36;12.80;99.90
61207;DHT22;47070;49.212;8.084;2022-11-15T08:57:36;12.80;99.90
61207;DHT22;47070;49.212;8.084;2022-11-15T09:01:37;12.80;99.90
61207;DHT22;47070;49.212;8.084;2022-11-15T09:05:37;12.90;99.90
61207;DHT22;47070;49.212;8.084;2022-11-15T09:09:38;13.00;99.90
61207;DHT22;47070;49.212;8.084;2022-11-15T09:13:38;13.10;99.90
61207;DHT22;47070;49.212;8.084;2022-11-15T09:17:39;13.30;99.90
61207;DHT22;47070;49.212;8.084;2022-11-15T09:21:40;13.30;99.90
61207;DHT22;47070;49.212;8.084;2022-11-15T09:25:40;13.30;99.90
61207;DHT22;47070;49.212;8.084;2022-11-15T09:29:41;13.30;99.90
61207;DHT22;47070;49.212;8.084;2022-11-15T09:33:43;13.30;99.90
61207;DHT22;47070;49.212;8.084;2022-11-15T09:37:44;13.50;99.90
61207;DHT22;47070;49.212;8.084;2022-11-15T09:42:12;13.40;99.90
61207;DHT22;47070;49.212;8.084;2022-11-15T09:50:48;13.30;99.90
61207;DHT22;47070;49.212;8.084;2022-11-15T09:54:50;13.30;99.90
61207;DHT22;47070;49.212;8.084;2022-11-15T09:59:16;13.50;99.90
61207;DHT22;47070;49.212;8.084;2022-11-15T10:03:31;13.40;99.90
61207;DHT22;47070;49.212;8.084;2022-11-15T10:07:42;13.40;99.90
61207;DHT22;47070;49.212;8.084;2022-11-15T10:11:44;13.40;99.90
61207;DHT22;47070;49.212;8.084;2022-11-15T10:15:46;13.30;99.90
61207;DHT22;47070;49.212;8.084;2022-11-15T10:20:28;13.20;99.90
61207;DHT22;47070;49.212;8.084;2022-11-15T10:24:35;13.40;99.90
61207;DHT22;47070;49.212;8.084;2022-11-15T10:28:37;13.40;99.90
61207;DHT22;47070;49.212;8.084;2022-11-15T10:32:38;13.70;99.90
61207;DHT22;47070;49.212;8.084;2022-11-15T10:36:53;13.90;99.90
61207;DHT22;47070;49.212;8.084;2022-11-15T10:41:06;13.90;99.90
61207;DHT22;47070;49.212;8.084;2022-11-15T10:45:37;13.90;99.90
61207;DHT22;47070;49.212;8.084;2022-11-15T10:49:56;14.30;99.90
61207;DHT22;47070;49.212;8.084;2022-11-15T10:53:59;14.60;99.90
61207;DHT22;47070;49.212;8.084;2022-11-15T11:03:03;15.30;99.90
61207;DHT22;47070;49.212;8.084;2022-11-15T11:07:08;15.00;99.90
61207;DHT22;47070;49.212;8.084;2022-11-15T11:11:19;15.40;99.90
61207;DHT22;47070;49.212;8.084;2022-11-15T11:15:22;15.30;99.90
61207;DHT22;47070;49.212;8.084;2022-11-15T11:32:45;16.10;99.90
61207;DHT22;47070;49.212;8.084;2022-11-15T11:36:50;16.30;99.90
61207;DHT22;47070;49.212;8.084;2022-11-15T11:41:20;16.20;99.90
61207;DHT22;47070;49.212;8.084;2022-11-15T11:49:58;16.50;99.90
61207;DHT22;47070;49.212;8.084;2022-11-15T11:54:38;16.80;99.90
61207;DHT22;47070;49.212;8.084;2022-11-15T11:58:45;16.60;99.90
61207;DHT22;47070;49.212;8.084;2022-11-15T12:07:20;16.80;99.90
61207;DHT22;47070;49.212;8.084;2022-11-15T12:11:49;17.10;99.90
61207;DHT22;47070;49.212;8.084;2022-11-15T12:15:59;17.00;99.90
61207;DHT22;47070;49.212;8.084;2022-11-15T12:20:06;17.30;99.90
61207;DHT22;47070;49.212;8.084;2022-11-15T12:24:33;17.10;99.90
61207;DHT22;47070;49.212;8.084;2022-11-15T12:32:58;17.50;99.90
61207;DHT22;47070;49.212;8.084;2022-11-15T12:36:59;17.50;99.90
61207;DHT22;47070;49.212;8.084;2022-11-15T12:41:15;17.70;99.90
61207;DHT22;47070;49.212;8.084;2022-11-15T12:45:28;17.40;99.90
61207;DHT22;47070;49.212;8.084;2022-11-15T12:53:34;17.50;99.90
61207;DHT22;47070;49.212;8.084;2022-11-15T12:57:37;18.00;99.90
61207;DHT22;47070;49.212;8.084;2022-11-15T13:13:44;17.50;99.90
61207;DHT22;47070;49.212;8.084;2022-11-15T13:17:50;17.70;99.90
61207;DHT22;47070;49.212;8.084;2022-11-15T13:21:51;17.80;99.90
61207;DHT22;47070;49.212;8.084;2022-11-15T13:26:13;17.30;99.90
61207;DHT22;47070;49.212;8.084;2022-11-15T13:30:24;17.20;99.90
61207;DHT22;47070;49.212;8.084;2022-11-15T13:38:28;17.10;99.90
61207;DHT22;47070;49.212;8.084;2022-11-15T13:42:29;16.80;99.90
61207;DHT22;47070;49.212;8.084;2022-11-15T13:46:33;16.60;99.90
61207;DHT22;47070;49.212;8.084;2022-11-15T13:50:36;16.80;99.90
61207;DHT22;47070;49.212;8.084;2022-11-15T13:54:48;16.60;99.90
61207;DHT22;47070;49.212;8.084;2022-11-15T13:58:50;16.40;99.90
61207;DHT22;47070;49.212;8.084;2022-11-15T14:02:54;16.30;99.90
61207;DHT22;47070;49.212;8.084;2022-11-15T14:06:57;16.00;99.90
61207;DHT22;47070;49.212;8.084;2022-11-15T14:11:17;15.90;99.90
61207;DHT22;47070;49.212;8.084;2022-11-15T14:15:38;15.80;99.90
61207;DHT22;47070;49.212;8.084;2022-11-15T14:19:39;15.70;99.90
61207;DHT22;47070;49.212;8.084;2022-11-15T14:23:40;15.70;99.90
61207;DHT22;47070;49.212;8.084;2022-11-15T14:27:43;15.70;99.90
61207;DHT22;47070;49.212;8.084;2022-11-15T14:31:44;15.50;99.90
61207;DHT22;47070;49.212;8.084;2022-11-15T14:35:46;15.50;99.90
61207;DHT22;47070;49.212;8.084;2022-11-15T14:39:47;15.30;99.90
61207;DHT22;47070;49.212;8.084;2022-11-15T14:43:49;15.20;99.90
61207;DHT22;47070;49.212;8.084;2022-11-15T14:47:50;15.10;99.90
61207;DHT22;47070;49.212;8.084;2022-11-15T14:51:50;15.10;99.90
61207;DHT22;47070;49.212;8.084;2022-11-15T14:55:51;15.10;99.90
61207;DHT22;47070;49.212;8.084;2022-11-15T14:59:51;15.00;99.90
61207;DHT22;47070;49.212;8.084;2022-11-15T15:03:52;15.00;99.90
61207;DHT22;47070;49.212;8.084;2022-11-15T15:07:56;15.00;99.90
61207;DHT22;47070;49.212;8.084;2022-11-15T15:11:56;14.90;99.90
61207;DHT22;47070;49.212;8.084;2022-11-15T15:15:57;14.80;99.90
61207;DHT22;47070;49.212;8.084;2022-11-15T15:19:57;14.70;99.90
61207;DHT22;47070;49.212;8.084;2022-11-15T15:23:58;14.60;99.90
61207;DHT22;47070;49.212;8.084;2022-11-15T15:27:58;14.50;99.90
61207;DHT22;47070;49.212;8.084;2022-11-15T15:31:59;14.40;99.90
61207;DHT22;47070;49.212;8.084;2022-11-15T15:36:00;14.60;99.90
61207;DHT22;47070;49.212;8.084;2022-11-15T15:40:00;14.40;99.90
61207;DHT22;47070;49.212;8.084;2022-11-15T15:44:01;14.30;99.90
61207;DHT22;47070;49.212;8.084;2022-11-15T15:48:01;14.20;99.90
61207;DHT22;47070;49.212;8.084;2022-11-15T15:52:02;14.00;99.90
61207;DHT22;47070;49.212;8.084;2022-11-15T15:56:02;14.10;99.90
61207;DHT22;47070;49.212;8.084;2022-11-15T16:00:04;14.10;99.90
61207;DHT22;47070;49.212;8.084;2022-11-15T16:04:05;14.00;99.90
61207;DHT22;47070;49.212;8.084;2022-11-15T16:08:05;14.00;99.90
61207;DHT22;47070;49.212;8.084;2022-11-15T16:12:06;13.80;99.90
61207;DHT22;47070;49.212;8.084;2022-11-15T16:16:09;13.80;99.90
61207;DHT22;47070;49.212;8.084;2022-11-15T16:20:33;13.60;99.90
61207;DHT22;47070;49.212;8.084;2022-11-15T16:24:34;13.60;99.90
61207;DHT22;47070;49.212;8.084;2022-11-15T16:28:34;13.70;99.90
61207;DHT22;47070;49.212;8.084;2022-11-15T16:32:35;13.70;99.90
61207;DHT22;47070;49.212;8.084;2022-11-15T16:36:35;13.50;99.90
61207;DHT22;47070;49.212;8.084;2022-11-15T16:40:36;13.50;99.90
61207;DHT22;47070;49.212;8.084;2022-11-15T16:44:36;13.50;99.90
61207;DHT22;47070;49.212;8.084;2022-11-15T16:48:37;13.60;99.90
61207;DHT22;47070;49.212;8.084;2022-11-15T16:52:39;13.30;99.90
61207;DHT22;47070;49.212;8.084;2022-11-15T16:56:40;13.40;99.90
61207;DHT22;47070;49.212;8.084;2022-11-15T17:00:41;13.20;99.90
61207;DHT22;47070;49.212;8.084;2022-11-15T17:04:41;13.30;99.90
61207;DHT22;47070;49.212;8.084;2022-11-15T17:08:42;13.30;99.90
61207;DHT22;47070;49.212;8.084;2022-11-15T17:12:43;13.30;99.90
61207;DHT22;47070;49.212;8.084;2022-11-15T17:16:44;13.30;99.90
61207;DHT22;47070;49.212;8.084;2022-11-15T17:20:44;13.30;99.90
61207;DHT22;47070;49.212;8.084;2022-11-15T17:24:45;13.30;99.90
61207;DHT22;47070;49.212;8.084;2022-11-15T17:28:45;13.30;99.90
61207;DHT22;47070;49.212;8.084;2022-11-15T17:32:46;13.30;99.90
61207;DHT22;47070;49.212;8.084;2022-11-15T17:36:47;13.50;99.90
61207;DHT22;47070;49.212;8.084;2022-11-15T17:40:48;13.40;99.90
61207;DHT22;47070;49.212;8.084;2022-11-15T17:44:48;13.40;99.90
61207;DHT22;47070;49.212;8.084;2022-11-15T17:48:49;13.30;99.90
61207;DHT22;47070;49.212;8.084;2022-11-15T17:52:49;13.30;99.90
61207;DHT22;47070;49.212;8.084;2022-11-15T17:56:50;13.30;99.90
61207;DHT22;47070;49.212;8.084;2022-11-15T18:00:50;13.40;99.90
61207;DHT22;47070;49.212;8.084;2022-11-15T18:04:51;13.40;99.90
61207;DHT22;47070;49.212;8.084;2022-11-15T18:08:53;13.40;99.90
61207;DHT22;47070;49.212;8.084;2022-11-15T18:12:55;13.40;99.90
61207;DHT22;47070;49.212;8.084;2022-11-15T18:16:55;13.40;99.90
61207;DHT22;47070;49.212;8.084;2022-11-15T18:21:03;13.30;99.90
61207;DHT22;47070;49.212;8.084;2022-11-15T18:25:04;13.40;99.90
61207;DHT22;47070;49.212;8.084;2022-11-15T18:29:05;13.40;99.90
61207;DHT22;47070;49.212;8.084;2022-11-15T18:33:05;13.40;99.90
61207;DHT22;47070;49.212;8.084;2022-11-15T18:37:06;13.20;99.90
61207;DHT22;47070;49.212;8.084;2022-11-15T18:41:15;13.40;99.90
61207;DHT22;47070;49.212;8.084;2022-11-15T18:45:18;13.30;99.90
61207;DHT22;47070;49.212;8.084;2022-11-15T18:49:19;13.30;99.90
61207;DHT22;47070;49.212;8.084;2022-11-15T18:53:19;13.30;99.90
61207;DHT22;47070;49.212;8.084;2022-11-15T18:57:20;13.30;99.90
61207;DHT22;47070;49.212;8.084;2022-11-15T19:01:23;13.30;99.90
61207;DHT22;47070;49.212;8.084;2022-11-15T19:05:24;13.20;99.90
61207;DHT22;47070;49.212;8.084;2022-11-15T19:09:24;13.10;99.90
61207;DHT22;47070;49.212;8.084;2022-11-15T19:13:31;13.20;99.90
61207;DHT22;47070;49.212;8.084;2022-11-15T19:17:32;13.20;99.90
61207;DHT22;47070;49.212;8.084;2022-11-15T19:21:33;13.00;99.90
61207;DHT22;47070;49.212;8.084;2022-11-15T19:25:34;13.20;99.90
61207;DHT22;47070;49.212;8.084;2022-11-15T19:29:34;13.20;99.90
61207;DHT22;47070;49.212;8.084;2022-11-15T19:33:35;13.10;99.90
61207;DHT22;47070;49.212;8.084;2022-11-15T19:37:35;13.20;99.90
61207;DHT22;47070;49.212;8.084;2022-11-15T19:41:36;13.00;99.90
61207;DHT22;47070;49.212;8.084;2022-11-15T19:45:39;13.10;99.90
61207;DHT22;47070;49.212;8.084;2022-11-15T19:49:39;13.10;99.90
61207;DHT22;47070;49.212;8.084;2022-11-15T19:53:40;13.10;99.90
61207;DHT22;47070;49.212;8.084;2022-11-15T19:57:41;13.10;99.90
61207;DHT22;47070;49.212;8.084;2022-11-15T20:01:41;13.10;99.90
61207;DHT22;47070;49.212;8.084;2022-11-15T20:05:42;13.00;99.90
61207;DHT22;47070;49.212;8.084;2022-11-15T20:09:42;13.20;99.90
61207;DHT22;47070;49.212;8.084;2022-11-15T20:13:43;13.20;99.90
61207;DHT22;47070;49.212;8.084;2022-11-15T20:17:44;13.20;99.90
61207;DHT22;47070;49.212;8.084;2022-11-15T20:21:44;13.20;99.90
61207;DHT22;47070;49.212;8.084;2022-11-15T20:25:45;13.10;99.90
61207;DHT22;47070;49.212;8.084;2022-11-15T20:29:46;13.00;99.90
61207;DHT22;47070;49.212;8.084;2022-11-15T20:33:48;13.00;99.90
61207;DHT22;47070;49.212;8.084;2022-11-15T20:37:48;13.10;99.90
61207;DHT22;47070;49.212;8.084;2022-11-15T20:41:49;13.10;99.90
61207;DHT22;47070;49.212;8.084;2022-11-15T20:45:49;13.30;99.90
61207;DHT22;47070;49.212;8.084;2022-11-15T20:49:50;13.30;99.90
61207;DHT22;47070;49.212;8.084;2022-11-15T20:53:50;13.30;99.90
61207;DHT22;47070;49.212;8.084;2022-11-15T20:57:51;13.20;99.90
61207;DHT22;47070;49.212;8.084;2022-11-15T21:01:51;13.20;99.90
61207;DHT22;47070;49.212;8.084;2022-11-15T21:05:52;13.20;99.90
61207;DHT22;47070;49.212;8.084;2022-11-15T21:09:53;13.20;99.90
61207;DHT22;47070;49.212;8.084;2022-11-15T21:14:12;13.20;99.90
61207;DHT22;47070;49.212;8.084;2022-11-15T21:18:13;13.20;99.90
61207;DHT22;47070;49.212;8.084;2022-11-15T21:22:14;13.30;99.90
61207;DHT22;47070;49.212;8.084;2022-11-15T21:26:15;13.30;99.90
61207;DHT22;47070;49.212;8.084;2022-11-15T21:30:15;13.20;99.90
61207;DHT22;47070;49.212;8.084;2022-11-15T21:34:16;13.20;99.90
61207;DHT22;47070;49.212;8.084;2022-11-15T21:38:17;13.20;99.90
61207;DHT22;47070;49.212;8.084;2022-11-15T21:42:18;13.10;99.90
61207;DHT22;47070;49.212;8.084;2022-11-15T21:46:18;13.10;99.90
61207;DHT22;47070;49.212;8.084;2022-11-15T21:50:19;13.10;99.90
61207;DHT22;47070;49.212;8.084;2022-11-15T21:54:19;13.20;99.90
61207;DHT22;47070;49.212;8.084;2022-11-15T21:58:21;13.10;99.90
61207;DHT22;47070;49.212;8.084;2022-11-15T22:02:21;13.20;99.90
61207;DHT22;47070;49.212;8.084;2022-11-15T22:06:22;13.10;99.90
61207;DHT22;47070;49.212;8.084;2022-11-15T22:10:23;13.20;99.90
61207;DHT22;47070;49.212;8.084;2022-11-15T22:14:24;13.20;99.90
61207;DHT22;47070;49.212;8.084;2022-11-15T22:18:24;13.10;99.90
61207;DHT22;47070;49.212;8.084;2022-11-15T22:22:25;13.10;99.90
61207;DHT22;47070;49.212;8.084;2022-11-15T22:26:25;13.00;99.90
61207;DHT22;47070;49.212;8.084;2022-11-15T22:30:26;13.10;99.90
61207;DHT22;47070;49.212;8.084;2022-11-15T22:34:26;13.10;99.90
61207;DHT22;47070;49.212;8.084;2022-11-15T22:38:28;13.10;99.90
61207;DHT22;47070;49.212;8.084;2022-11-15T22:42:28;13.10;99.90
61207;DHT22;47070;49.212;8.084;2022-11-15T22:46:29;13.00;99.90
61207;DHT22;47070;49.212;8.084;2022-11-15T22:50:29;13.00;99.90
61207;DHT22;47070;49.212;8.084;2022-11-15T22:54:30;12.90;99.90
61207;DHT22;47070;49.212;8.084;2022-11-15T22:58:32;12.90;99.90
61207;DHT22;47070;49.212;8.084;2022-11-15T23:02:32;13.00;99.90
61207;DHT22;47070;49.212;8.084;2022-11-15T23:06:33;13.00;99.90
61207;DHT22;47070;49.212;8.084;2022-11-15T23:10:34;13.00;99.90
61207;DHT22;47070;49.212;8.084;2022-11-15T23:14:53;13.10;99.90
61207;DHT22;47070;49.212;8.084;2022-11-15T23:18:57;13.10;99.90
61207;DHT22;47070;49.212;8.084;2022-11-15T23:22:58;13.10;99.90
61207;DHT22;47070;49.212;8.084;2022-11-15T23:27:01;13.00;99.90
61207;DHT22;47070;49.212;8.084;2022-11-15T23:31:04;13.00;99.90
61207;DHT22;47070;49.212;8.084;2022-11-15T23:35:34;13.00;99.90
61207;DHT22;47070;49.212;8.084;2022-11-15T23:39:34;13.00;99.90
61207;DHT22;47070;49.212;8.084;2022-11-15T23:43:35;13.00;99.90
61207;DHT22;47070;49.212;8.084;2022-11-15T23:47:35;13.00;99.90
61207;DHT22;47070;49.212;8.084;2022-11-15T23:51:36;13.00;99.90
61207;DHT22;47070;49.212;8.084;2022-11-15T23:55:36;13.10;99.90
61207;DHT22;47070;49.212;8.084;2022-11-15T23:59:38;12.80;99.90
